createdAt,value
2019-03-29T00:00:02.459Z,10.3
2019-03-29T00:02:15.452Z,10.3
2019-03-29T00:03:21.956Z,10.3
2019-03-29T00:05:34.926Z,10.3
2019-03-29T00:06:41.423Z,10.3
2019-03-29T00:07:47.955Z,10.3
2019-03-29T00:13:20.413Z,10.2
2019-03-29T00:14:26.866Z,10.2
2019-03-29T00:15:33.363Z,10.1
2019-03-29T00:17:46.358Z,10.1
2019-03-29T00:18:52.087Z,10.1
2019-03-29T00:19:59.417Z,10.1
2019-03-29T00:21:05.876Z,10.1
2019-03-29T00:22:12.040Z,10.1
2019-03-29T00:23:18.850Z,10.1
2019-03-29T00:25:31.898Z,10.1
2019-03-29T00:26:38.388Z,10
2019-03-29T00:33:17.354Z,10
2019-03-29T00:34:23.877Z,10
2019-03-29T00:36:36.863Z,9.9
2019-03-29T00:38:49.823Z,9.9
2019-03-29T00:41:02.087Z,9.9
2019-03-29T00:42:09.296Z,9.9
2019-03-29T00:45:28.799Z,9.9
2019-03-29T00:48:48.327Z,9.8
2019-03-29T00:49:54.810Z,9.7
2019-03-29T00:52:07.078Z,9.7
2019-03-29T00:53:14.310Z,9.7
2019-03-29T00:55:27.283Z,9.8
2019-03-29T00:56:33.774Z,9.8
2019-03-29T00:59:53.298Z,9.7
2019-03-29T01:00:59.098Z,9.7
2019-03-29T01:04:19.238Z,9.7
2019-03-29T01:05:25.777Z,9.7
2019-03-29T01:07:38.752Z,9.7
2019-03-29T01:09:51.726Z,9.7
2019-03-29T01:12:04.742Z,9.6
2019-03-29T01:13:11.268Z,9.6
2019-03-29T01:15:24.022Z,9.7
2019-03-29T01:18:43.752Z,9.7
2019-03-29T01:19:50.022Z,9.7
2019-03-29T01:20:56.741Z,9.6
2019-03-29T01:23:09.715Z,9.6
2019-03-29T01:24:16.214Z,9.6
2019-03-29T01:27:35.718Z,9.5
2019-03-29T01:28:42.185Z,9.5
2019-03-29T01:29:48.692Z,9.5
2019-03-29T01:30:55.222Z,9.5
2019-03-29T01:32:01.667Z,9.5
2019-03-29T01:33:08.219Z,9.5
2019-03-29T01:35:21.207Z,9.5
2019-03-29T01:36:27.639Z,9.5
2019-03-29T01:38:40.698Z,9.5
2019-03-29T01:39:47.147Z,9.5
2019-03-29T01:40:53.665Z,9.5
2019-03-29T01:44:13.146Z,9.5
2019-03-29T01:46:26.142Z,9.5
2019-03-29T01:48:39.129Z,9.5
2019-03-29T01:56:24.578Z,9.4
2019-03-29T01:58:37.814Z,9.4
2019-03-29T01:59:44.093Z,9.3
2019-03-29T02:00:50.606Z,9.3
2019-03-29T02:01:57.112Z,9.3
2019-03-29T02:03:03.632Z,9.3
2019-03-29T02:04:10.009Z,9.3
2019-03-29T02:05:16.623Z,9.3
2019-03-29T02:06:23.078Z,9.3
2019-03-29T02:07:29.552Z,9.3
2019-03-29T02:10:49.063Z,9.3
2019-03-29T02:11:55.588Z,9.3
2019-03-29T02:14:08.558Z,9.3
2019-03-29T02:15:15.091Z,9.3
2019-03-29T02:17:28.092Z,9.3
2019-03-29T02:18:34.529Z,9.2
2019-03-29T02:21:54.006Z,9.1
2019-03-29T02:23:00.548Z,9.1
2019-03-29T02:28:32.991Z,9.1
2019-03-29T02:31:52.053Z,9.1
2019-03-29T02:35:12.012Z,9.1
2019-03-29T02:37:25.001Z,9.1
2019-03-29T02:38:31.460Z,9.1
2019-03-29T02:41:50.991Z,9
2019-03-29T02:44:03.984Z,9
2019-03-29T02:46:16.985Z,9
2019-03-29T02:48:29.956Z,9
2019-03-29T02:49:36.477Z,9
2019-03-29T02:50:42.093Z,9
2019-03-29T02:52:55.986Z,9
2019-03-29T02:54:02.532Z,8.9
2019-03-29T02:56:15.416Z,8.9
2019-03-29T02:57:21.946Z,8.8
2019-03-29T02:58:28.429Z,8.8
2019-03-29T03:00:41.432Z,8.8
2019-03-29T03:01:47.901Z,8.8
2019-03-29T03:02:54.451Z,8.8
2019-03-29T03:06:13.939Z,8.8
2019-03-29T03:08:26.939Z,8.8
2019-03-29T03:09:33.367Z,8.8
2019-03-29T03:11:46.398Z,8.7
2019-03-29T03:16:12.409Z,8.5
2019-03-29T03:17:18.861Z,8.5
2019-03-29T03:19:31.835Z,8.5
2019-03-29T03:20:38.367Z,8.6
2019-03-29T03:21:44.896Z,8.6
2019-03-29T03:23:57.872Z,8.6
2019-03-29T03:25:04.346Z,8.6
2019-03-29T03:27:17.036Z,8.6
2019-03-29T03:28:23.808Z,8.6
2019-03-29T03:29:30.326Z,8.6
2019-03-29T03:31:43.324Z,8.7
2019-03-29T03:32:49.844Z,8.7
2019-03-29T03:36:09.307Z,8.7
2019-03-29T03:37:15.830Z,8.6
2019-03-29T03:45:01.275Z,8.6
2019-03-29T03:47:14.270Z,8.6
2019-03-29T03:48:20.080Z,8.6
2019-03-29T03:49:27.024Z,8.6
2019-03-29T03:50:33.077Z,8.6
2019-03-29T03:52:46.798Z,8.6
2019-03-29T03:54:59.787Z,8.5
2019-03-29T03:56:06.233Z,8.5
2019-03-29T03:57:12.734Z,8.5
2019-03-29T03:58:19.235Z,8.5
2019-03-29T03:59:25.780Z,8.5
2019-03-29T04:00:32.240Z,8.5
2019-03-29T04:02:45.231Z,8.5
2019-03-29T04:03:51.755Z,8.5
2019-03-29T04:06:04.758Z,8.5
2019-03-29T04:07:11.228Z,8.5
2019-03-29T04:09:24.217Z,8.5
2019-03-29T04:10:30.747Z,8.5
2019-03-29T04:13:50.235Z,8.5
2019-03-29T04:14:56.660Z,8.4
2019-03-29T04:16:03.215Z,8.4
2019-03-29T04:18:16.207Z,8.4
2019-03-29T04:19:22.671Z,8.4
2019-03-29T04:21:35.664Z,8.3
2019-03-29T04:23:48.636Z,8.3
2019-03-29T04:26:01.622Z,8.2
2019-03-29T04:27:08.180Z,8.2
2019-03-29T04:29:21.144Z,8.1
2019-03-29T04:33:47.108Z,8.1
2019-03-29T04:34:53.644Z,8.1
2019-03-29T04:37:06.557Z,8.1
2019-03-29T04:38:13.060Z,8.2
2019-03-29T04:39:19.585Z,8.1
2019-03-29T04:40:26.053Z,8.1
2019-03-29T04:42:39.097Z,8.1
2019-03-29T04:43:45.551Z,8.1
2019-03-29T04:44:52.021Z,8.1
2019-03-29T04:45:58.547Z,8
2019-03-29T04:47:05.067Z,8
2019-03-29T04:49:18.044Z,8.1
2019-03-29T04:50:24.521Z,8.1
2019-03-29T04:52:37.498Z,8.1
2019-03-29T04:53:44.010Z,8.1
2019-03-29T04:54:50.472Z,8.1
2019-03-29T04:57:03.476Z,8.1
2019-03-29T04:58:09.984Z,8.1
2019-03-29T05:00:22.942Z,8.1
2019-03-29T05:02:35.984Z,8
2019-03-29T05:03:42.452Z,8.1
2019-03-29T05:04:48.915Z,8.1
2019-03-29T05:05:55.443Z,8
2019-03-29T05:07:01.901Z,8.1
2019-03-29T05:08:08.417Z,8.1
2019-03-29T05:10:21.428Z,8.1
2019-03-29T05:12:34.384Z,8
2019-03-29T05:13:40.892Z,8
2019-03-29T05:15:53.897Z,8
2019-03-29T05:17:00.370Z,8
2019-03-29T05:19:13.038Z,8.1
2019-03-29T05:20:19.847Z,8
2019-03-29T05:21:26.639Z,8
2019-03-29T05:23:39.371Z,8
2019-03-29T05:24:45.800Z,8.1
2019-03-29T05:26:58.797Z,8.1
2019-03-29T05:28:05.302Z,8.1
2019-03-29T05:31:24.823Z,8.1
2019-03-29T05:32:31.264Z,8.1
2019-03-29T05:34:44.247Z,8.1
2019-03-29T05:35:50.781Z,8.1
2019-03-29T05:38:03.764Z,8.1
2019-03-29T05:41:23.245Z,8.1
2019-03-29T05:43:36.208Z,8.1
2019-03-29T05:44:42.752Z,8.1
2019-03-29T05:46:55.073Z,8.1
2019-03-29T05:49:08.704Z,8.1
2019-03-29T05:51:21.689Z,8.2
2019-03-29T05:52:28.146Z,8.2
2019-03-29T05:54:41.234Z,8.2
2019-03-29T05:55:47.655Z,8.2
2019-03-29T05:56:54.167Z,8.2
2019-03-29T06:00:13.666Z,8.2
2019-03-29T06:03:33.110Z,8.2
2019-03-29T06:04:39.626Z,8.2
2019-03-29T06:05:46.147Z,8.2
2019-03-29T06:06:52.688Z,8.2
2019-03-29T06:07:59.134Z,8.2
2019-03-29T06:11:18.557Z,8.2
2019-03-29T06:13:31.581Z,8.3
2019-03-29T06:14:38.096Z,8.2
2019-03-29T06:15:44.564Z,8.3
2019-03-29T06:17:57.635Z,8.3
2019-03-29T06:20:10.502Z,8.2
2019-03-29T06:23:29.986Z,8.3
2019-03-29T06:25:43.032Z,8.3
2019-03-29T06:27:56.041Z,8.4
2019-03-29T06:31:15.497Z,8.5
2019-03-29T06:33:28.477Z,8.5
2019-03-29T06:34:34.974Z,8.5
2019-03-29T06:37:54.440Z,8.6
2019-03-29T06:41:13.931Z,8.5
2019-03-29T06:42:20.051Z,8.5
2019-03-29T06:43:26.944Z,8.5
2019-03-29T06:44:33.373Z,8.5
2019-03-29T06:45:39.874Z,8.5
2019-03-29T06:46:46.366Z,8.5
2019-03-29T06:50:05.877Z,8.6
2019-03-29T06:51:12.339Z,8.6
2019-03-29T06:52:18.823Z,8.6
2019-03-29T06:53:25.374Z,8.6
2019-03-29T06:54:31.840Z,8.6
2019-03-29T06:55:38.353Z,8.6
2019-03-29T06:56:44.852Z,8.7
2019-03-29T06:58:57.792Z,8.7
2019-03-29T07:01:10.083Z,8.8
2019-03-29T07:02:17.297Z,8.8
2019-03-29T07:04:30.299Z,8.8
2019-03-29T07:06:43.307Z,8.8
2019-03-29T07:08:56.272Z,8.9
2019-03-29T07:12:15.733Z,8.9
2019-03-29T07:13:22.250Z,8.9
2019-03-29T07:14:28.752Z,9
2019-03-29T07:16:41.730Z,9.1
2019-03-29T07:17:48.023Z,9.1
2019-03-29T07:20:01.239Z,9.1
2019-03-29T07:21:07.689Z,9.1
2019-03-29T07:22:14.209Z,9.1
2019-03-29T07:24:27.200Z,9.2
2019-03-29T07:25:33.696Z,9.2
2019-03-29T07:27:46.701Z,9.3
2019-03-29T07:28:53.139Z,9.3
2019-03-29T07:31:06.171Z,9.2
2019-03-29T07:35:32.121Z,9.2
2019-03-29T07:37:45.111Z,9.2
2019-03-29T07:39:58.142Z,9.3
2019-03-29T07:41:04.602Z,9.3
2019-03-29T07:42:10.000Z,9.4
2019-03-29T07:43:17.512Z,9.4
2019-03-29T07:46:37.095Z,9.5
2019-03-29T07:47:43.551Z,9.6
2019-03-29T07:48:50.051Z,9.6
2019-03-29T07:51:03.045Z,9.7
2019-03-29T07:52:09.538Z,9.8
2019-03-29T07:55:29.030Z,9.9
2019-03-29T07:59:55.026Z,10.1
2019-03-29T08:01:01.530Z,10.1
2019-03-29T08:03:14.532Z,10.2
2019-03-29T08:04:20.981Z,10.3
2019-03-29T08:06:34.002Z,10.4
2019-03-29T08:07:40.457Z,10.4
2019-03-29T08:13:12.930Z,10.7
2019-03-29T08:14:19.463Z,10.8
2019-03-29T08:18:45.397Z,10.9
2019-03-29T08:19:51.915Z,11
2019-03-29T08:22:04.882Z,11
2019-03-29T08:24:17.920Z,11.1
2019-03-29T08:25:24.420Z,11.2
2019-03-29T08:26:30.857Z,11.2
2019-03-29T08:27:37.378Z,11.3
2019-03-29T08:29:50.413Z,11.4
2019-03-29T08:30:56.857Z,11.4
2019-03-29T08:32:03.037Z,11.5
2019-03-29T08:37:35.868Z,11.6
2019-03-29T08:38:42.315Z,11.6
2019-03-29T08:39:48.854Z,11.7
2019-03-29T08:43:08.281Z,11.8
2019-03-29T08:45:21.029Z,11.8
2019-03-29T08:46:27.792Z,11.8
2019-03-29T08:47:34.282Z,11.9
2019-03-29T08:48:40.800Z,11.9
2019-03-29T08:49:47.288Z,11.9
2019-03-29T08:52:00.247Z,12
2019-03-29T08:53:06.773Z,12
2019-03-29T08:55:19.755Z,12.1
2019-03-29T08:57:32.775Z,12.2
2019-03-29T08:58:39.262Z,12.2
2019-03-29T09:00:52.019Z,12.3
2019-03-29T09:03:05.260Z,12.4
2019-03-29T09:05:18.190Z,12.5
2019-03-29T09:07:31.206Z,12.6
2019-03-29T09:08:37.665Z,12.6
2019-03-29T09:09:44.192Z,12.7
2019-03-29T09:10:50.683Z,12.7
2019-03-29T09:11:57.191Z,12.8
2019-03-29T09:14:10.154Z,12.9
2019-03-29T09:16:23.193Z,13.1
2019-03-29T09:17:29.628Z,13.2
2019-03-29T09:19:42.622Z,13.4
2019-03-29T09:20:49.158Z,13.5
2019-03-29T09:24:08.582Z,13.6
2019-03-29T09:25:15.145Z,13.7
2019-03-29T09:26:21.592Z,13.8
2019-03-29T09:28:34.579Z,14.1
2019-03-29T09:29:41.118Z,14.1
2019-03-29T09:31:54.106Z,14.5
2019-03-29T09:34:07.051Z,14.7
2019-03-29T09:36:20.036Z,14.9
2019-03-29T09:37:26.575Z,15.2
2019-03-29T09:39:39.572Z,15.9
2019-03-29T09:41:52.557Z,16.4
2019-03-29T09:44:05.527Z,16.8
2019-03-29T09:45:11.981Z,16.8
2019-03-29T09:48:31.499Z,17.2
2019-03-29T09:49:37.974Z,17.4
2019-03-29T09:50:44.495Z,17.5
2019-03-29T09:51:50.957Z,17.4
2019-03-29T09:52:57.465Z,17.4
2019-03-29T09:56:16.925Z,17.6
2019-03-29T09:57:23.412Z,17.5
2019-03-29T09:59:36.436Z,18.2
2019-03-29T10:00:42.912Z,18.4
2019-03-29T10:01:49.444Z,18.7
2019-03-29T10:02:55.938Z,18.6
2019-03-29T10:04:02.396Z,18.4
2019-03-29T10:08:28.408Z,19.4
2019-03-29T10:10:41.449Z,20.4
2019-03-29T10:12:54.437Z,21.3
2019-03-29T10:14:00.081Z,21.9
2019-03-29T10:15:07.328Z,22.3
2019-03-29T10:16:13.857Z,22.4
2019-03-29T10:18:26.798Z,22.7
2019-03-29T10:26:12.297Z,22
2019-03-29T10:27:18.823Z,21.4
2019-03-29T10:28:25.027Z,21.3
2019-03-29T10:31:44.779Z,22.2
2019-03-29T10:33:57.767Z,22.5
2019-03-29T10:35:04.285Z,23.1
2019-03-29T10:36:10.748Z,23.7
2019-03-29T10:38:23.700Z,24.4
2019-03-29T10:39:30.208Z,24.4
2019-03-29T10:42:49.737Z,24.9
2019-03-29T10:43:56.192Z,24.8
2019-03-29T10:46:09.232Z,24.8
2019-03-29T10:47:15.689Z,24.5
2019-03-29T10:49:28.660Z,24.5
2019-03-29T10:53:54.690Z,25.1
2019-03-29T10:55:01.131Z,24.8
2019-03-29T10:57:14.169Z,24.8
2019-03-29T10:59:27.160Z,25.3
2019-03-29T11:02:46.597Z,26
2019-03-29T11:06:06.084Z,25.9
2019-03-29T11:07:12.574Z,26
2019-03-29T11:08:19.104Z,26.1
2019-03-29T11:09:25.624Z,26.1
2019-03-29T11:10:32.070Z,25.8
2019-03-29T11:12:45.086Z,25.7
2019-03-29T11:13:51.639Z,25.8
2019-03-29T11:14:58.106Z,25.9
2019-03-29T11:17:11.012Z,25.7
2019-03-29T11:20:30.527Z,25.6
2019-03-29T11:21:37.006Z,25.6
2019-03-29T11:22:43.519Z,25.6
2019-03-29T11:24:56.493Z,25.2
2019-03-29T11:30:28.956Z,25
2019-03-29T11:32:41.994Z,25.2
2019-03-29T11:33:48.463Z,24.5
2019-03-29T11:36:01.424Z,23.6
2019-03-29T11:38:14.463Z,23.8
2019-03-29T11:40:27.458Z,24.5
2019-03-29T11:41:33.091Z,24.9
2019-03-29T11:43:46.940Z,25.5
2019-03-29T11:44:53.426Z,25.7
2019-03-29T11:45:59.897Z,25.9
2019-03-29T11:48:12.086Z,25.7
2019-03-29T11:49:19.388Z,25.7
2019-03-29T11:51:32.346Z,25.8
2019-03-29T11:52:38.872Z,25.9
2019-03-29T11:53:45.386Z,25.5
2019-03-29T11:55:58.350Z,25
2019-03-29T12:00:24.300Z,25.8
2019-03-29T12:01:30.799Z,26
2019-03-29T12:03:43.804Z,26.5
2019-03-29T12:07:03.326Z,25.1
2019-03-29T12:09:16.309Z,25.2
2019-03-29T12:12:35.739Z,25.6
2019-03-29T12:19:14.758Z,26.2
2019-03-29T12:23:40.858Z,26.8
2019-03-29T12:24:47.289Z,27
2019-03-29T12:28:06.661Z,27.4
2019-03-29T12:30:19.675Z,27.6
2019-03-29T12:31:26.201Z,27.6
2019-03-29T12:32:32.653Z,27.7
2019-03-29T12:34:45.643Z,27.4
2019-03-29T12:35:52.140Z,27.5
2019-03-29T12:38:05.153Z,27.5
2019-03-29T12:39:11.905Z,27.4
2019-03-29T12:40:18.128Z,27.4
2019-03-29T12:43:37.589Z,27.1
2019-03-29T12:51:23.100Z,26.5
2019-03-29T12:53:36.056Z,26.6
2019-03-29T12:55:49.026Z,26.5
2019-03-29T12:58:02.060Z,26.7
2019-03-29T13:01:21.585Z,26.5
2019-03-29T13:02:27.998Z,25.4
2019-03-29T13:03:34.526Z,24.9
2019-03-29T13:05:47.478Z,25.2
2019-03-29T13:06:53.960Z,25.5
2019-03-29T13:10:13.475Z,25.1
2019-03-29T13:17:58.920Z,25.9
2019-03-29T13:19:05.443Z,25.8
2019-03-29T13:21:18.447Z,25.7
2019-03-29T13:26:50.982Z,24.5
2019-03-29T13:30:10.360Z,23.7
2019-03-29T13:32:23.364Z,23.4
2019-03-29T13:34:36.037Z,23.4
2019-03-29T13:36:49.338Z,23.4
2019-03-29T13:37:55.865Z,23.4
2019-03-29T13:40:08.834Z,23.2
2019-03-29T13:41:15.302Z,23.2
2019-03-29T13:42:21.833Z,23.3
2019-03-29T13:44:34.771Z,23
2019-03-29T13:47:54.295Z,22.5
2019-03-29T13:49:00.760Z,22.5
2019-03-29T13:50:07.261Z,22.5
2019-03-29T13:53:26.746Z,22.6
2019-03-29T13:55:39.747Z,22.5
2019-03-29T13:56:46.226Z,22.4
2019-03-29T13:57:52.747Z,22.3
2019-03-29T14:00:05.717Z,22.3
2019-03-29T14:01:12.250Z,22.3
2019-03-29T14:04:31.701Z,22.1
2019-03-29T14:05:38.022Z,21.9
2019-03-29T14:07:51.163Z,21.9
2019-03-29T14:08:57.702Z,21.8
2019-03-29T14:11:10.686Z,21.7
2019-03-29T14:13:23.651Z,21.7
2019-03-29T14:16:43.185Z,21.6
2019-03-29T14:18:56.115Z,21.6
2019-03-29T14:20:02.662Z,21.6
2019-03-29T14:21:09.146Z,21.6
2019-03-29T14:23:22.105Z,21.7
2019-03-29T14:26:41.630Z,21.4
2019-03-29T14:27:48.096Z,21.4
2019-03-29T14:28:54.594Z,21.3
2019-03-29T14:31:07.597Z,21.3
2019-03-29T14:32:14.075Z,21.3
2019-03-29T14:34:27.122Z,21.3
2019-03-29T14:35:33.555Z,21.3
2019-03-29T14:36:40.092Z,21.3
2019-03-29T14:39:59.570Z,21.3
2019-03-29T14:42:12.599Z,21.2
2019-03-29T14:43:19.042Z,21.2
2019-03-29T14:44:25.557Z,21.2
2019-03-29T14:47:45.003Z,21.1
2019-03-29T14:49:58.054Z,21.1
2019-03-29T14:52:11.035Z,21.2
2019-03-29T14:54:23.978Z,20.9
2019-03-29T14:55:30.521Z,20.9
2019-03-29T14:57:43.523Z,21
2019-03-29T14:58:49.962Z,21
2019-03-29T14:59:56.047Z,21
2019-03-29T15:05:28.984Z,20.9
2019-03-29T15:06:35.463Z,20.8
2019-03-29T15:09:54.916Z,20.7
2019-03-29T15:11:01.458Z,20.8
2019-03-29T15:14:20.943Z,20.8
2019-03-29T15:15:27.420Z,20.7
2019-03-29T15:18:46.874Z,20.7
2019-03-29T15:20:59.867Z,20.7
2019-03-29T15:23:12.920Z,20.6
2019-03-29T15:26:32.425Z,20.4
2019-03-29T15:28:45.344Z,20.4
2019-03-29T15:36:30.798Z,20.3
2019-03-29T15:37:37.311Z,20.3
2019-03-29T15:38:43.787Z,20.3
2019-03-29T15:42:03.327Z,20.1
2019-03-29T15:45:22.806Z,20
2019-03-29T15:49:48.815Z,19.9
2019-03-29T15:52:01.779Z,19.8
2019-03-29T15:53:08.271Z,19.8
2019-03-29T15:54:14.793Z,19.8
2019-03-29T15:56:27.715Z,19.7
2019-03-29T15:57:34.516Z,19.7
2019-03-29T15:59:47.258Z,19.6
2019-03-29T16:02:00.270Z,19.5
2019-03-29T16:04:13.202Z,19.5
2019-03-29T16:05:19.680Z,19.5
2019-03-29T16:07:32.700Z,19.5
2019-03-29T16:09:45.721Z,19.4
2019-03-29T16:11:58.858Z,19.4
2019-03-29T16:13:05.196Z,19.3
2019-03-29T16:16:24.655Z,19.4
2019-03-29T16:17:31.189Z,19.4
2019-03-29T16:20:50.663Z,19.3
2019-03-29T16:23:03.642Z,19.3
2019-03-29T16:24:10.159Z,19.3
2019-03-29T16:30:49.106Z,19.2
2019-03-29T16:31:55.580Z,19.2
2019-03-29T16:35:15.081Z,19.2
2019-03-29T16:36:21.610Z,19.1
2019-03-29T16:38:34.055Z,19.1
2019-03-29T16:39:41.096Z,19.1
2019-03-29T16:40:47.542Z,19.1
2019-03-29T16:43:00.549Z,19.1
2019-03-29T16:48:33.030Z,19
2019-03-29T16:50:46.031Z,19
2019-03-29T16:51:52.493Z,19
2019-03-29T16:55:12.014Z,18.9
2019-03-29T16:56:18.046Z,18.9
2019-03-29T16:58:31.473Z,18.8
2019-03-29T17:02:57.481Z,18.7
2019-03-29T17:04:03.944Z,18.7
2019-03-29T17:06:16.000Z,18.7
2019-03-29T17:07:23.487Z,18.7
2019-03-29T17:10:42.912Z,18.5
2019-03-29T17:14:02.000Z,18.5
2019-03-29T17:17:21.949Z,18.4
2019-03-29T17:21:47.899Z,18.3
2019-03-29T17:22:54.418Z,18.3
2019-03-29T17:25:07.420Z,18.2
2019-03-29T17:29:33.400Z,18
2019-03-29T17:30:39.870Z,18
2019-03-29T17:32:52.871Z,18
2019-03-29T17:33:59.340Z,18
2019-03-29T17:35:05.879Z,18
2019-03-29T17:37:18.874Z,17.9
2019-03-29T17:38:25.321Z,17.9
2019-03-29T17:40:38.350Z,17.9
2019-03-29T17:41:44.835Z,17.8
2019-03-29T17:45:04.265Z,17.9
2019-03-29T17:46:10.080Z,17.9
2019-03-29T17:48:23.079Z,17.8
2019-03-29T17:49:30.255Z,17.8
2019-03-29T17:50:36.775Z,17.8
2019-03-29T17:52:49.793Z,17.8
2019-03-29T17:53:56.272Z,17.8
2019-03-29T17:56:09.249Z,17.8
2019-03-29T17:58:22.244Z,17.7
2019-03-29T18:01:41.701Z,17.6
2019-03-29T18:06:07.708Z,17.5
2019-03-29T18:08:20.073Z,17.5
2019-03-29T18:09:27.002Z,17.5
2019-03-29T18:12:46.718Z,17.4
2019-03-29T18:16:06.193Z,17.4
2019-03-29T18:17:12.653Z,17.4
2019-03-29T18:19:25.064Z,17.4
2019-03-29T18:20:32.150Z,17.4
2019-03-29T18:21:38.686Z,17.4
2019-03-29T18:23:51.620Z,17.4
2019-03-29T18:24:58.152Z,17.3
2019-03-29T18:27:11.168Z,17.3
2019-03-29T18:28:17.626Z,17.3
2019-03-29T18:31:37.091Z,17.2
2019-03-29T18:32:43.636Z,17.2
2019-03-29T18:34:56.619Z,17.2
2019-03-29T18:37:09.590Z,17.2
2019-03-29T18:44:55.119Z,17.1
2019-03-29T18:47:08.085Z,17
2019-03-29T18:48:14.055Z,17
2019-03-29T18:50:27.580Z,17
2019-03-29T18:51:34.071Z,17
2019-03-29T18:52:40.058Z,17
2019-03-29T18:54:53.537Z,17
2019-03-29T18:56:00.083Z,16.9
2019-03-29T18:59:19.053Z,16.9
2019-03-29T19:02:39.056Z,16.8
2019-03-29T19:05:58.541Z,16.8
2019-03-29T19:07:05.004Z,16.8
2019-03-29T19:08:11.515Z,16.7
2019-03-29T19:13:44.002Z,16.7
2019-03-29T19:15:56.954Z,16.7
2019-03-29T19:18:09.096Z,16.7
2019-03-29T19:19:16.500Z,16.7
2019-03-29T19:21:29.004Z,16.6
2019-03-29T19:27:01.960Z,16.6
2019-03-29T19:30:21.465Z,16.5
2019-03-29T19:31:27.904Z,16.5
2019-03-29T19:33:40.931Z,16.5
2019-03-29T19:34:47.442Z,16.5
2019-03-29T19:37:00.432Z,16.4
2019-03-29T19:38:06.944Z,16.4
2019-03-29T19:39:13.382Z,16.4
2019-03-29T19:41:26.402Z,16.4
2019-03-29T19:42:32.867Z,16.3
2019-03-29T19:44:45.870Z,16.2
2019-03-29T19:45:52.412Z,16.2
2019-03-29T19:49:11.871Z,16.1
2019-03-29T19:50:18.325Z,16.1
2019-03-29T19:52:31.349Z,16.1
2019-03-29T19:56:57.341Z,16.1
2019-03-29T20:00:16.804Z,16
2019-03-29T20:02:29.086Z,16
2019-03-29T20:05:49.348Z,15.9
2019-03-29T20:08:02.324Z,15.9
2019-03-29T20:09:08.800Z,15.8
2019-03-29T20:12:28.300Z,15.7
2019-03-29T20:15:47.798Z,15.7
2019-03-29T20:16:54.273Z,15.7
2019-03-29T20:18:00.745Z,15.7
2019-03-29T20:20:13.805Z,15.7
2019-03-29T20:21:20.263Z,15.7
2019-03-29T20:24:39.723Z,15.7
2019-03-29T20:25:46.239Z,15.6
2019-03-29T20:27:59.024Z,15.6
2019-03-29T20:31:18.743Z,15.6
2019-03-29T20:35:44.706Z,15.5
2019-03-29T20:36:51.184Z,15.5
2019-03-29T20:39:04.191Z,15.5
2019-03-29T20:41:17.021Z,15.5
2019-03-29T20:43:30.179Z,15.5
2019-03-29T20:44:36.697Z,15.5
2019-03-29T20:46:49.672Z,15.5
2019-03-29T20:47:56.157Z,15.5
2019-03-29T20:49:02.683Z,15.5
2019-03-29T20:51:15.698Z,15.5
2019-03-29T20:52:22.186Z,15.5
2019-03-29T20:55:41.667Z,15.4
2019-03-29T21:02:20.666Z,15.3
2019-03-29T21:03:27.147Z,15.3
2019-03-29T21:04:33.606Z,15.3
2019-03-29T21:07:53.080Z,15.3
2019-03-29T21:10:06.092Z,15.2
2019-03-29T21:12:19.112Z,15.1
2019-03-29T21:14:32.100Z,15.1
2019-03-29T21:15:38.664Z,15.1
2019-03-29T21:17:51.566Z,15
2019-03-29T21:20:04.574Z,15
2019-03-29T21:22:17.057Z,14.9
2019-03-29T21:25:37.119Z,14.8
2019-03-29T21:26:43.576Z,14.8
2019-03-29T21:30:03.076Z,14.7
2019-03-29T21:31:09.551Z,14.7
2019-03-29T21:33:22.539Z,14.7
2019-03-29T21:34:28.997Z,14.6
2019-03-29T21:37:48.557Z,14.6
2019-03-29T21:41:07.998Z,14.5
2019-03-29T21:42:14.476Z,14.5
2019-03-29T21:43:21.011Z,14.5
2019-03-29T21:45:34.004Z,14.5
2019-03-29T21:46:40.484Z,14.4
2019-03-29T21:48:53.521Z,14.4
2019-03-29T21:51:06.452Z,14.4
2019-03-29T21:53:19.466Z,14.3
2019-03-29T21:54:25.939Z,14.3
2019-03-29T21:56:38.963Z,14.3
2019-03-29T21:58:52.003Z,14.2
2019-03-29T22:01:04.947Z,14.2
2019-03-29T22:02:11.419Z,14.2
2019-03-29T22:04:24.474Z,14.2
2019-03-29T22:05:30.975Z,14.2
2019-03-29T22:08:50.406Z,14.1
2019-03-29T22:09:56.967Z,14.1
2019-03-29T22:12:09.088Z,14.1
2019-03-29T22:13:16.389Z,14.1
2019-03-29T22:14:22.913Z,14
2019-03-29T22:16:35.904Z,14
2019-03-29T22:17:42.427Z,13.9
2019-03-29T22:19:55.039Z,13.9
2019-03-29T22:21:01.865Z,13.8
2019-03-29T22:22:08.361Z,13.8
2019-03-29T22:25:27.916Z,13.8
2019-03-29T22:27:40.893Z,13.8
2019-03-29T22:32:06.879Z,13.7
2019-03-29T22:33:13.338Z,13.7
2019-03-29T22:35:26.035Z,13.6
2019-03-29T22:37:39.350Z,13.5
2019-03-29T22:39:52.369Z,13.5
2019-03-29T22:43:11.832Z,13.5
2019-03-29T22:44:18.032Z,13.5
2019-03-29T22:49:50.790Z,13.4
2019-03-29T22:52:03.780Z,13.3
2019-03-29T22:53:10.319Z,13.3
2019-03-29T22:55:23.318Z,13.3
2019-03-29T22:56:29.774Z,13.2
2019-03-29T22:58:42.794Z,13.2
2019-03-29T22:59:49.267Z,13.2
2019-03-29T23:06:28.288Z,13.2
2019-03-29T23:08:41.279Z,13.2
2019-03-29T23:10:54.221Z,13.1
2019-03-29T23:12:00.761Z,13.1
2019-03-29T23:14:13.744Z,13.1
2019-03-29T23:18:39.689Z,13
2019-03-29T23:21:59.221Z,12.9
2019-03-29T23:23:05.679Z,12.9
2019-03-29T23:24:12.210Z,12.9
2019-03-29T23:25:18.668Z,12.9
2019-03-29T23:26:25.195Z,12.9
2019-03-29T23:27:31.716Z,12.9
2019-03-29T23:30:51.208Z,12.9
2019-03-29T23:31:57.679Z,12.9
2019-03-29T23:33:04.149Z,12.9
2019-03-29T23:35:17.145Z,12.9
2019-03-29T23:36:23.626Z,12.8
2019-03-29T23:37:30.144Z,12.8
2019-03-29T23:38:36.627Z,12.8
2019-03-29T23:39:43.106Z,12.8
2019-03-29T23:41:56.126Z,12.7
2019-03-29T23:43:02.588Z,12.7
2019-03-29T23:45:15.567Z,12.7
2019-03-29T23:47:28.698Z,12.7
2019-03-29T23:49:41.585Z,12.7
2019-03-29T23:50:48.075Z,12.7
2019-03-29T23:53:01.058Z,12.5
2019-03-29T23:57:26.998Z,12.6
2019-03-29T23:58:33.552Z,12.6
2019-03-29T23:59:40.015Z,12.6
